This is the latest recevied weather packets stored in our database for station/object YG1CIC-13. If no packets are shown the sender has not sent any weather packets the latest 1 day(s).
| Time | Temp. | Humidity | Pressure | Rain* | Wind** | Luminosity | Snow |
|---|---|---|---|---|---|---|---|
| 1778033700 | 37.22° C | 61% | - | 0 mm | 0 m/s | - | - |
| 1778033100 | 35.56° C | 64% | - | 0 mm | 0 m/s | - | - |
| 1778032500 | 35.56° C | 65% | - | 0 mm | 0 m/s | - | - |
| 1778031900 | 40° C | 56% | - | 0 mm | 0 m/s | - | - |
| 1778031300 | 39.44° C | 56% | - | 0 mm | 0 m/s | - | - |
| 1778030700 | 37.22° C | 62% | - | 0 mm | 0 m/s | - | - |
| 1778030100 | 40° C | 57% | - | 0 mm | 0 m/s | - | - |
| 1778029499 | 35° C | 67% | - | 0 mm | 0 m/s | - | - |
| 1778028898 | 37.78° C | 61% | - | 0 mm | 0 m/s | - | - |
| 1778028297 | 37.78° C | 65% | - | 0 mm | 0 m/s | - | - |
| 1778027696 | 35.56° C | 71% | - | 0 mm | 0 m/s | - | - |
| 1778027095 | 34.44° C | 73% | - | 0 mm | 0 m/s | - | - |
| 1778026495 | 31.11° C | 86% | - | 0 mm | 0 m/s | - | - |
| 1778025902 | 29.44° C | 91% | - | 0 mm | 0 m/s | - | - |
| 1778025294 | 28.89° C | 95% | - | 0 mm | 0 m/s | - | - |
| 1778024694 | 29.44° C | 93% | - | 0 mm | 0 m/s | - | - |
| 1778024094 | 27.22° C | 96% | - | 0 mm | 0 m/s | - | - |
| 1778023494 | 26.67° C | 93% | - | 0 mm | 0 m/s | - | - |
| 1778022894 | 26.67° C | 100% | - | 0 mm | 0 m/s | - | - |
| 1778022293 | 26.67° C | 98% | - | 0 mm | 0 m/s | - | - |
| 1778021693 | 26.67° C | 100% | - | 0 mm | 0 m/s | - | - |
| 1778021093 | 26.11° C | 93% | - | 0 mm | 0 m/s | - | - |
| 1778020493 | 26.67° C | 100% | - | 0 mm | 0 m/s | - | - |
| 1778019893 | 26.67° C | 96% | - | 0 mm | 0 m/s | - | - |
| 1778019292 | 26.67° C | 98% | - | 0 mm | 0 m/s | - | - |
* Rain latest hour (hover to see other rain measurements)
** Current wind speed in m/s (hover to see current wind gust speed)